Watson, Texas
Current Conditions -  °F | °C
As of 2:53 PM on Monday 22 Dec 2014 (Local Time) from KBMQ Reporting Station
Clear Clear  
Wind Chill: 69°   Ceiling: Unl
Heat Index: 69°   Visibility: 10mi
Dew Point: 44°   Wind: 7mph
Humidity: 40%   Direction: NA
Pressure: 29.63"   Gusts: NA
Location:  31.1064°N, 98.2303°W
Report Text: KBMQ 222053Z AUTO VRB06KT 10SM CLR 21/07 A2963 RMK AO2 SLP024 6//// T02060067 56021 TSNO
Loading
Personal Weather Stations






























Interactive Weather Map New forecast layout! Learn more

10-Day Weather Forecast

Advertisements
Track Severe Weather on mobile